sensor_id;sensor_type;location;lat;lon;timestamp;pressure;altitude;pressure_sealevel;temperature;humidity
40117;BME280;25829;50.228;18.936;2024-02-15T00:00:08;99030.56;;;6.83;65.25
40117;BME280;25829;50.228;18.936;2024-02-15T00:03:09;99032.38;;;6.82;64.93
40117;BME280;25829;50.228;18.936;2024-02-15T00:06:16;99040.88;;;6.84;65.37
40117;BME280;25829;50.228;18.936;2024-02-15T00:09:20;99039.91;;;6.85;65.40
40117;BME280;25829;50.228;18.936;2024-02-15T00:12:21;99047.28;;;6.90;65.06
40117;BME280;25829;50.228;18.936;2024-02-15T00:15:22;99056.63;;;6.92;65.45
40117;BME280;25829;50.228;18.936;2024-02-15T00:18:33;99060.06;;;6.93;65.36
40117;BME280;25829;50.228;18.936;2024-02-15T00:21:37;99060.69;;;6.95;65.13
40117;BME280;25829;50.228;18.936;2024-02-15T00:24:38;99060.53;;;6.96;65.00
40117;BME280;25829;50.228;18.936;2024-02-15T00:27:39;99056.91;;;6.97;65.51
40117;BME280;25829;50.228;18.936;2024-02-15T00:30:40;99059.53;;;6.97;64.87
40117;BME280;25829;50.228;18.936;2024-02-15T00:33:41;99066.41;;;6.98;65.43
40117;BME280;25829;50.228;18.936;2024-02-15T00:36:44;99064.59;;;6.99;65.53
40117;BME280;25829;50.228;18.936;2024-02-15T00:39:45;99070.69;;;6.99;65.27
40117;BME280;25829;50.228;18.936;2024-02-15T00:42:46;99075.94;;;6.99;65.30
40117;BME280;25829;50.228;18.936;2024-02-15T00:45:47;99075.94;;;6.99;65.38
40117;BME280;25829;50.228;18.936;2024-02-15T00:48:48;99076.09;;;6.98;65.12
40117;BME280;25829;50.228;18.936;2024-02-15T00:51:49;99073.66;;;6.96;65.69
40117;BME280;25829;50.228;18.936;2024-02-15T00:54:50;99074.59;;;6.95;65.54
40117;BME280;25829;50.228;18.936;2024-02-15T00:57:51;99075.59;;;6.94;65.71
40117;BME280;25829;50.228;18.936;2024-02-15T01:00:53;99074.59;;;6.95;66.24
40117;BME280;25829;50.228;18.936;2024-02-15T01:03:57;99079.03;;;6.95;66.14
40117;BME280;25829;50.228;18.936;2024-02-15T01:06:58;99069.38;;;6.95;66.16
40117;BME280;25829;50.228;18.936;2024-02-15T01:10:02;99074.47;;;6.97;65.51
40117;BME280;25829;50.228;18.936;2024-02-15T01:13:06;99081.03;;;6.93;65.57
40117;BME280;25829;50.228;18.936;2024-02-15T01:16:07;99082.19;;;6.90;65.92
40117;BME280;25829;50.228;18.936;2024-02-15T01:19:08;99075.78;;;6.85;65.76
40117;BME280;25829;50.228;18.936;2024-02-15T01:22:09;99073.50;;;6.82;65.70
40117;BME280;25829;50.228;18.936;2024-02-15T01:25:10;99081.38;;;6.82;66.38
40117;BME280;25829;50.228;18.936;2024-02-15T01:28:11;99081.38;;;6.82;66.60
40117;BME280;25829;50.228;18.936;2024-02-15T01:31:12;99069.59;;;6.77;66.10
40117;BME280;25829;50.228;18.936;2024-02-15T01:34:13;99061.09;;;6.75;66.42
40117;BME280;25829;50.228;18.936;2024-02-15T01:37:14;99059.59;;;6.73;65.90
40117;BME280;25829;50.228;18.936;2024-02-15T01:40:15;99055.19;;;6.73;66.17
40117;BME280;25829;50.228;18.936;2024-02-15T01:43:17;99046.16;;;6.68;65.71
40117;BME280;25829;50.228;18.936;2024-02-15T01:46:19;99046.16;;;6.68;66.03
40117;BME280;25829;50.228;18.936;2024-02-15T01:49:22;99038.81;;;6.63;65.85
40117;BME280;25829;50.228;18.936;2024-02-15T01:52:23;99046.53;;;6.57;66.06
40117;BME280;25829;50.228;18.936;2024-02-15T01:55:24;99036.03;;;6.57;66.02
40117;BME280;25829;50.228;18.936;2024-02-15T01:58:29;99041.78;;;6.60;65.61
40117;BME280;25829;50.228;18.936;2024-02-15T02:01:33;99040.63;;;6.63;66.03
40117;BME280;25829;50.228;18.936;2024-02-15T02:04:34;99036.34;;;6.70;66.13
40117;BME280;25829;50.228;18.936;2024-02-15T02:07:35;99038.44;;;6.74;66.53
40117;BME280;25829;50.228;18.936;2024-02-15T02:10:39;99037.31;;;6.77;66.13
40117;BME280;25829;50.228;18.936;2024-02-15T02:13:40;99034.53;;;6.78;66.48
40117;BME280;25829;50.228;18.936;2024-02-15T02:16:41;99032.53;;;6.81;66.83
40117;BME280;25829;50.228;18.936;2024-02-15T02:19:42;99035.97;;;6.81;66.79
40117;BME280;25829;50.228;18.936;2024-02-15T02:22:46;99036.44;;;6.85;66.11
40117;BME280;25829;50.228;18.936;2024-02-15T02:25:48;99036.13;;;6.88;66.42
40117;BME280;25829;50.228;18.936;2024-02-15T02:28:50;99027.28;;;6.89;66.90
40117;BME280;25829;50.228;18.936;2024-02-15T02:31:51;99031.34;;;6.91;66.67
40117;BME280;25829;50.228;18.936;2024-02-15T02:34:52;99032.00;;;6.93;67.15
40117;BME280;25829;50.228;18.936;2024-02-15T02:37:57;99029.53;;;6.92;66.60
40117;BME280;25829;50.228;18.936;2024-02-15T02:40:58;99025.00;;;6.86;66.26
40117;BME280;25829;50.228;18.936;2024-02-15T02:43:59;99029.44;;;6.85;66.77
40117;BME280;25829;50.228;18.936;2024-02-15T02:47:00;99025.00;;;6.86;66.97
40117;BME280;25829;50.228;18.936;2024-02-15T02:50:01;99021.91;;;6.82;66.49
40117;BME280;25829;50.228;18.936;2024-02-15T02:53:03;99020.09;;;6.83;66.24
40117;BME280;25829;50.228;18.936;2024-02-15T02:56:05;99025.00;;;6.86;66.46
40117;BME280;25829;50.228;18.936;2024-02-15T02:59:09;99020.56;;;6.86;66.58
40117;BME280;25829;50.228;18.936;2024-02-15T03:02:09;99025.16;;;6.84;66.90
40117;BME280;25829;50.228;18.936;2024-02-15T03:05:10;99020.91;;;6.83;66.44
40117;BME280;25829;50.228;18.936;2024-02-15T03:08:12;99017.47;;;6.83;66.92
40117;BME280;25829;50.228;18.936;2024-02-15T03:11:18;99023.84;;;6.80;67.05
40117;BME280;25829;50.228;18.936;2024-02-15T03:14:19;99021.22;;;6.80;66.69
40117;BME280;25829;50.228;18.936;2024-02-15T03:17:22;99025.47;;;6.81;66.97
40117;BME280;25829;50.228;18.936;2024-02-15T03:20:23;99029.91;;;6.81;66.88
40117;BME280;25829;50.228;18.936;2024-02-15T03:23:27;99023.66;;;6.82;67.21
40117;BME280;25829;50.228;18.936;2024-02-15T03:26:32;99019.28;;;6.82;66.77
40117;BME280;25829;50.228;18.936;2024-02-15T03:29:37;99031.22;;;6.85;66.77
40117;BME280;25829;50.228;18.936;2024-02-15T03:32:38;99025.81;;;6.86;66.97
40117;BME280;25829;50.228;18.936;2024-02-15T03:35:39;99023.00;;;6.88;66.60
40117;BME280;25829;50.228;18.936;2024-02-15T03:38:39;99023.34;;;6.85;66.13
40117;BME280;25829;50.228;18.936;2024-02-15T03:41:41;99023.66;;;6.82;66.64
40117;BME280;25829;50.228;18.936;2024-02-15T03:44:42;99020.41;;;6.79;66.64
40117;BME280;25829;50.228;18.936;2024-02-15T03:47:43;99017.63;;;6.81;66.92
40117;BME280;25829;50.228;18.936;2024-02-15T03:50:44;99015.81;;;6.82;67.12
40117;BME280;25829;50.228;18.936;2024-02-15T03:53:46;99023.53;;;6.83;67.29
40117;BME280;25829;50.228;18.936;2024-02-15T03:56:50;99016.47;;;6.84;67.06
40117;BME280;25829;50.228;18.936;2024-02-15T03:59:54;99015.00;;;6.81;67.49
40117;BME280;25829;50.228;18.936;2024-02-15T04:02:57;99023.66;;;6.82;67.01
40117;BME280;25829;50.228;18.936;2024-02-15T04:05:58;99025.47;;;6.81;67.17
40117;BME280;25829;50.228;18.936;2024-02-15T04:09:00;99017.94;;;6.78;67.53
40117;BME280;25829;50.228;18.936;2024-02-15T04:12:02;99017.78;;;6.79;67.72
40117;BME280;25829;50.228;18.936;2024-02-15T04:15:03;99026.28;;;6.82;67.69
40117;BME280;25829;50.228;18.936;2024-02-15T04:18:12;99014.38;;;6.79;67.48
40117;BME280;25829;50.228;18.936;2024-02-15T04:21:12;99016.16;;;6.78;67.34
40117;BME280;25829;50.228;18.936;2024-02-15T04:24:16;99018.94;;;6.77;67.76
40117;BME280;25829;50.228;18.936;2024-02-15T04:27:20;99026.19;;;6.75;67.43
40117;BME280;25829;50.228;18.936;2024-02-15T04:30:21;99020.94;;;6.75;68.04
40117;BME280;25829;50.228;18.936;2024-02-15T04:33:24;99028.44;;;6.78;67.79
40117;BME280;25829;50.228;18.936;2024-02-15T04:36:25;99025.19;;;6.76;68.52
40117;BME280;25829;50.228;18.936;2024-02-15T04:39:26;99027.97;;;6.74;68.24
40117;BME280;25829;50.228;18.936;2024-02-15T04:42:28;99027.00;;;6.75;67.83
40117;BME280;25829;50.228;18.936;2024-02-15T04:45:31;99028.16;;;6.73;68.12
40117;BME280;25829;50.228;18.936;2024-02-15T04:48:32;99027.81;;;6.68;67.97
40117;BME280;25829;50.228;18.936;2024-02-15T04:55:54;99026.53;;;6.64;67.89
40117;BME280;25829;50.228;18.936;2024-02-15T04:58:55;99034.56;;;6.62;68.15
40117;BME280;25829;50.228;18.936;2024-02-15T05:01:58;99047.34;;;6.65;67.92
40117;BME280;25829;50.228;18.936;2024-02-15T05:04:58;99048.16;;;6.66;67.52
40117;BME280;25829;50.228;18.936;2024-02-15T05:07:59;99040.28;;;6.66;68.29
40117;BME280;25829;50.228;18.936;2024-02-15T05:11:02;99041.44;;;6.63;68.22
40117;BME280;25829;50.228;18.936;2024-02-15T05:14:04;99038.19;;;6.61;68.02
40117;BME280;25829;50.228;18.936;2024-02-15T05:17:07;99048.81;;;6.60;68.06
40117;BME280;25829;50.228;18.936;2024-02-15T05:20:12;99048.66;;;6.53;68.15
40117;BME280;25829;50.228;18.936;2024-02-15T05:23:13;99046.38;;;6.50;67.85
40117;BME280;25829;50.228;18.936;2024-02-15T05:26:15;99055.75;;;6.44;67.97
40117;BME280;25829;50.228;18.936;2024-02-15T05:29:23;99053.13;;;6.36;68.37
40117;BME280;25829;50.228;18.936;2024-02-15T05:32:24;99055.09;;;6.34;68.74
40117;BME280;25829;50.228;18.936;2024-02-15T05:35:26;99057.38;;;6.37;68.90
40117;BME280;25829;50.228;18.936;2024-02-15T05:38:28;99056.72;;;6.35;68.83
40117;BME280;25829;50.228;18.936;2024-02-15T05:46:38;99062.94;;;6.26;68.45
40117;BME280;25829;50.228;18.936;2024-02-15T05:49:40;99069.69;;;6.20;68.54
40117;BME280;25829;50.228;18.936;2024-02-15T05:52:41;99071.63;;;6.18;68.28
40117;BME280;25829;50.228;18.936;2024-02-15T05:55:42;99071.78;;;6.08;68.48
40117;BME280;25829;50.228;18.936;2024-02-15T05:58:44;99078.03;;;5.99;68.60
40117;BME280;25829;50.228;18.936;2024-02-15T06:01:47;99073.75;;;5.98;68.57
40117;BME280;25829;50.228;18.936;2024-02-15T06:04:50;99075.72;;;5.96;68.58
40117;BME280;25829;50.228;18.936;2024-02-15T06:07:53;99073.25;;;5.95;68.74
40117;BME280;25829;50.228;18.936;2024-02-15T06:10:54;99076.56;;;5.89;68.62
40117;BME280;25829;50.228;18.936;2024-02-15T06:13:55;99075.34;;;5.83;68.96
40117;BME280;25829;50.228;18.936;2024-02-15T06:16:56;99091.88;;;5.83;68.76
40117;BME280;25829;50.228;18.936;2024-02-15T06:19:58;99088.94;;;5.78;68.96
40117;BME280;25829;50.228;18.936;2024-02-15T06:22:59;99090.06;;;5.76;68.84
40117;BME280;25829;50.228;18.936;2024-02-15T06:26:00;99088.44;;;5.75;68.75
40117;BME280;25829;50.228;18.936;2024-02-15T06:29:03;99094.16;;;5.70;69.29
40117;BME280;25829;50.228;18.936;2024-02-15T06:32:22;99093.50;;;5.68;69.11
40117;BME280;25829;50.228;18.936;2024-02-15T06:35:42;99095.63;;;5.65;69.68
40117;BME280;25829;50.228;18.936;2024-02-15T06:39:01;99095.13;;;5.61;69.60
40117;BME280;25829;50.228;18.936;2024-02-15T06:42:21;99100.81;;;5.56;69.48
40117;BME280;25829;50.228;18.936;2024-02-15T06:45:22;99103.59;;;5.55;69.41
40117;BME280;25829;50.228;18.936;2024-02-15T06:48:23;99101.63;;;5.49;69.67
40117;BME280;25829;50.228;18.936;2024-02-15T06:51:25;99092.28;;;5.46;69.89
40117;BME280;25829;50.228;18.936;2024-02-15T06:54:26;99105.84;;;5.42;70.11
40117;BME280;25829;50.228;18.936;2024-02-15T06:57:33;99096.38;;;5.41;69.89
40117;BME280;25829;50.228;18.936;2024-02-15T07:00:36;99097.66;;;5.36;70.06
40117;BME280;25829;50.228;18.936;2024-02-15T07:03:43;99101.41;;;5.34;70.07
40117;BME280;25829;50.228;18.936;2024-02-15T07:06:48;99108.28;;;5.35;70.20
40117;BME280;25829;50.228;18.936;2024-02-15T07:09:53;99102.72;;;5.38;69.92
40117;BME280;25829;50.228;18.936;2024-02-15T07:12:54;99103.53;;;5.39;70.61
40117;BME280;25829;50.228;18.936;2024-02-15T07:15:58;99103.41;;;5.40;70.63
40117;BME280;25829;50.228;18.936;2024-02-15T07:19:12;99098.69;;;5.44;70.13
40117;BME280;25829;50.228;18.936;2024-02-15T07:22:13;99098.81;;;5.42;70.78
40117;BME280;25829;50.228;18.936;2024-02-15T07:25:14;99098.69;;;5.44;71.00
40117;BME280;25829;50.228;18.936;2024-02-15T07:28:15;99094.91;;;5.46;71.03
40117;BME280;25829;50.228;18.936;2024-02-15T07:31:16;99102.94;;;5.53;71.01
40117;BME280;25829;50.228;18.936;2024-02-15T07:34:17;99098.56;;;5.62;70.48
40117;BME280;25829;50.228;18.936;2024-02-15T07:37:17;99097.56;;;5.71;70.98
40117;BME280;25829;50.228;18.936;2024-02-15T07:40:18;99112.69;;;5.85;70.39
40117;BME280;25829;50.228;18.936;2024-02-15T07:43:22;99107.97;;;5.97;70.30
40117;BME280;25829;50.228;18.936;2024-02-15T07:46:27;99115.38;;;6.10;70.66
40117;BME280;25829;50.228;18.936;2024-02-15T07:49:28;99107.66;;;6.24;70.48
40117;BME280;25829;50.228;18.936;2024-02-15T07:52:29;99113.38;;;6.36;70.24
40117;BME280;25829;50.228;18.936;2024-02-15T07:55:30;99104.84;;;6.50;69.86
40117;BME280;25829;50.228;18.936;2024-02-15T07:58:31;99102.41;;;6.65;69.67
40117;BME280;25829;50.228;18.936;2024-02-15T08:01:32;99116.31;;;6.82;69.56
40117;BME280;25829;50.228;18.936;2024-02-15T08:04:35;99102.50;;;6.96;69.36
40117;BME280;25829;50.228;18.936;2024-02-15T08:07:42;99108.66;;;7.12;69.22
40117;BME280;25829;50.228;18.936;2024-02-15T08:10:44;99101.56;;;7.29;69.18
40117;BME280;25829;50.228;18.936;2024-02-15T08:13:47;99097.06;;;7.45;68.50
40117;BME280;25829;50.228;18.936;2024-02-15T08:16:54;99102.56;;;7.59;68.40
40117;BME280;25829;50.228;18.936;2024-02-15T08:19:56;99088.03;;;7.71;67.99
40117;BME280;25829;50.228;18.936;2024-02-15T08:22:57;99092.97;;;7.82;67.76
40117;BME280;25829;50.228;18.936;2024-02-15T08:25:59;99082.03;;;7.93;67.26
40117;BME280;25829;50.228;18.936;2024-02-15T08:29:00;99076.38;;;8.05;66.60
40117;BME280;25829;50.228;18.936;2024-02-15T08:32:01;99080.91;;;8.11;66.10
40117;BME280;25829;50.228;18.936;2024-02-15T08:35:02;99083.47;;;8.19;66.81
40117;BME280;25829;50.228;18.936;2024-02-15T08:38:06;99077.78;;;8.30;65.91
40117;BME280;25829;50.228;18.936;2024-02-15T08:41:07;99072.47;;;8.38;65.34
40117;BME280;25829;50.228;18.936;2024-02-15T08:44:08;99077.28;;;8.50;65.53
40117;BME280;25829;50.228;18.936;2024-02-15T08:47:11;99080.94;;;8.63;65.68
40117;BME280;25829;50.228;18.936;2024-02-15T08:50:18;99079.13;;;8.79;65.37
40117;BME280;25829;50.228;18.936;2024-02-15T08:53:20;99081.34;;;8.90;65.12
40117;BME280;25829;50.228;18.936;2024-02-15T08:56:22;99077.44;;;9.01;65.31
40117;BME280;25829;50.228;18.936;2024-02-15T08:59:39;99077.41;;;9.15;65.09
40117;BME280;25829;50.228;18.936;2024-02-15T09:02:40;99075.97;;;9.28;64.63
40117;BME280;25829;50.228;18.936;2024-02-15T09:05:41;99076.75;;;9.43;64.41
40117;BME280;25829;50.228;18.936;2024-02-15T09:08:42;99077.53;;;9.58;64.45
40117;BME280;25829;50.228;18.936;2024-02-15T09:11:42;99072.03;;;9.75;64.40
40117;BME280;25829;50.228;18.936;2024-02-15T09:14:43;99079.88;;;9.90;63.38
40117;BME280;25829;50.228;18.936;2024-02-15T09:17:44;99088.69;;;9.97;63.35
40117;BME280;25829;50.228;18.936;2024-02-15T09:20:49;99079.47;;;10.07;63.34
40117;BME280;25829;50.228;18.936;2024-02-15T09:23:55;99087.25;;;10.16;63.18
40117;BME280;25829;50.228;18.936;2024-02-15T09:26:56;99083.66;;;10.23;62.59
40117;BME280;25829;50.228;18.936;2024-02-15T09:29:57;99087.59;;;10.34;62.20
40117;BME280;25829;50.228;18.936;2024-02-15T09:32:58;99090.72;;;10.44;62.38
40117;BME280;25829;50.228;18.936;2024-02-15T09:35:59;99080.84;;;10.53;62.09
40117;BME280;25829;50.228;18.936;2024-02-15T09:38:59;99088.41;;;10.56;61.37
40117;BME280;25829;50.228;18.936;2024-02-15T09:42:00;99086.84;;;10.68;62.11
40117;BME280;25829;50.228;18.936;2024-02-15T09:45:02;99097.94;;;10.85;60.79
40117;BME280;25829;50.228;18.936;2024-02-15T09:48:06;99091.69;;;10.93;60.87
40117;BME280;25829;50.228;18.936;2024-02-15T09:51:10;99092.16;;;11.03;60.88
40117;BME280;25829;50.228;18.936;2024-02-15T09:54:14;99091.22;;;11.17;59.69
40117;BME280;25829;50.228;18.936;2024-02-15T09:57:26;99086.25;;;11.36;60.11
40117;BME280;25829;50.228;18.936;2024-02-15T10:00:28;99082.09;;;11.74;60.06
40117;BME280;25829;50.228;18.936;2024-02-15T10:03:31;99073.84;;;12.37;59.91
40117;BME280;25829;50.228;18.936;2024-02-15T10:06:33;99068.69;;;12.95;58.86
40117;BME280;25829;50.228;18.936;2024-02-15T10:09:33;99073.28;;;13.33;56.06
40117;BME280;25829;50.228;18.936;2024-02-15T10:12:37;99069.88;;;13.58;55.46
40117;BME280;25829;50.228;18.936;2024-02-15T10:15:41;99073.00;;;13.48;54.00
40117;BME280;25829;50.228;18.936;2024-02-15T10:18:51;99071.22;;;13.29;55.59
40117;BME280;25829;50.228;18.936;2024-02-15T10:21:52;99069.47;;;13.03;56.02
40117;BME280;25829;50.228;18.936;2024-02-15T10:25:12;99078.28;;;12.77;55.62
40117;BME280;25829;50.228;18.936;2024-02-15T10:28:20;99074.25;;;12.47;56.59
40117;BME280;25829;50.228;18.936;2024-02-15T10:31:23;99064.06;;;12.11;56.12
40117;BME280;25829;50.228;18.936;2024-02-15T10:34:24;99065.41;;;11.87;56.99
40117;BME280;25829;50.228;18.936;2024-02-15T10:37:28;99059.69;;;11.64;57.89
40117;BME280;25829;50.228;18.936;2024-02-15T10:40:31;99058.03;;;11.49;58.12
40117;BME280;25829;50.228;18.936;2024-02-15T10:43:33;99064.31;;;11.48;58.80
40117;BME280;25829;50.228;18.936;2024-02-15T10:46:40;99058.63;;;11.51;58.97
40117;BME280;25829;50.228;18.936;2024-02-15T10:49:42;99060.88;;;11.54;59.21
40117;BME280;25829;50.228;18.936;2024-02-15T10:53:38;99059.88;;;11.62;58.68
40117;BME280;25829;50.228;18.936;2024-02-15T10:56:35;99056.66;;;11.67;58.87
40117;BME280;25829;50.228;18.936;2024-02-15T11:00:07;99055.84;;;11.73;58.47
40117;BME280;25829;50.228;18.936;2024-02-15T11:03:19;99057.50;;;11.74;59.21
40117;BME280;25829;50.228;18.936;2024-02-15T11:06:35;99057.50;;;11.74;59.26
40117;BME280;25829;50.228;18.936;2024-02-15T11:09:57;99053.44;;;11.78;59.07
40117;BME280;25829;50.228;18.936;2024-02-15T11:13:00;99055.66;;;11.74;59.04
40117;BME280;25829;50.228;18.936;2024-02-15T11:16:01;99055.25;;;11.71;58.78
40117;BME280;25829;50.228;18.936;2024-02-15T11:19:05;99047.09;;;11.66;58.82
40117;BME280;25829;50.228;18.936;2024-02-15T11:22:10;99042.59;;;11.60;58.59
40117;BME280;25829;50.228;18.936;2024-02-15T11:25:11;99044.63;;;11.58;58.94
40117;BME280;25829;50.228;18.936;2024-02-15T11:31:54;99045.84;;;11.55;58.58
40117;BME280;25829;50.228;18.936;2024-02-15T11:35:03;99035.28;;;11.55;58.37
40117;BME280;25829;50.228;18.936;2024-02-15T11:38:27;99022.88;;;11.56;58.80
40117;BME280;25829;50.228;18.936;2024-02-15T11:41:28;99024.28;;;11.51;57.88
40117;BME280;25829;50.228;18.936;2024-02-15T11:44:29;99030.19;;;11.53;59.04
40117;BME280;25829;50.228;18.936;2024-02-15T11:47:32;99025.13;;;11.59;59.33
40117;BME280;25829;50.228;18.936;2024-02-15T11:50:45;99025.91;;;11.59;59.09
40117;BME280;25829;50.228;18.936;2024-02-15T11:54:20;99018.63;;;11.61;58.53
40117;BME280;25829;50.228;18.936;2024-02-15T11:57:21;99018.00;;;11.66;58.90
40117;BME280;25829;50.228;18.936;2024-02-15T12:00:39;99017.00;;;11.67;58.37
40117;BME280;25829;50.228;18.936;2024-02-15T12:03:58;99009.66;;;11.62;58.29
40117;BME280;25829;50.228;18.936;2024-02-15T12:07:18;99011.91;;;11.65;58.87
40117;BME280;25829;50.228;18.936;2024-02-15T12:10:37;99006.84;;;11.70;58.89
40117;BME280;25829;50.228;18.936;2024-02-15T12:13:56;98999.34;;;11.81;58.83
40117;BME280;25829;50.228;18.936;2024-02-15T12:17:15;98999.13;;;11.89;58.77
40117;BME280;25829;50.228;18.936;2024-02-15T12:20:36;99007.06;;;11.89;58.70
40117;BME280;25829;50.228;18.936;2024-02-15T12:23:38;98996.91;;;11.92;59.26
40117;BME280;25829;50.228;18.936;2024-02-15T12:26:39;98996.28;;;11.97;58.98
40117;BME280;25829;50.228;18.936;2024-02-15T12:29:42;98989.59;;;12.01;58.98
40117;BME280;25829;50.228;18.936;2024-02-15T12:32:42;98992.25;;;12.08;59.04
40117;BME280;25829;50.228;18.936;2024-02-15T12:36:04;98986.75;;;12.09;58.50
40117;BME280;25829;50.228;18.936;2024-02-15T12:39:26;98993.09;;;12.08;58.68
40117;BME280;25829;50.228;18.936;2024-02-15T12:42:46;98984.13;;;12.09;59.27
40117;BME280;25829;50.228;18.936;2024-02-15T12:46:11;98986.53;;;12.11;59.16
40117;BME280;25829;50.228;18.936;2024-02-15T12:49:44;98980.84;;;12.14;59.20
40117;BME280;25829;50.228;18.936;2024-02-15T12:52:50;98979.22;;;12.06;59.03
40117;BME280;25829;50.228;18.936;2024-02-15T12:55:57;98983.72;;;12.06;59.04
40117;BME280;25829;50.228;18.936;2024-02-15T12:59:01;98987.53;;;11.96;59.27
40117;BME280;25829;50.228;18.936;2024-02-15T13:02:01;98976.16;;;11.89;59.66
40117;BME280;25829;50.228;18.936;2024-02-15T13:05:04;98982.25;;;11.90;59.60
40117;BME280;25829;50.228;18.936;2024-02-15T13:08:05;98978.78;;;11.83;59.19
40117;BME280;25829;50.228;18.936;2024-02-15T13:11:10;98989.16;;;11.77;59.47
40117;BME280;25829;50.228;18.936;2024-02-15T13:14:13;98985.72;;;11.70;59.55
40117;BME280;25829;50.228;18.936;2024-02-15T13:17:14;98981.22;;;11.71;60.08
40117;BME280;25829;50.228;18.936;2024-02-15T13:20:15;98982.63;;;11.73;60.27
40117;BME280;25829;50.228;18.936;2024-02-15T13:23:20;98983.66;;;11.72;60.23
40117;BME280;25829;50.228;18.936;2024-02-15T13:27:29;98978.38;;;11.72;59.89
40117;BME280;25829;50.228;18.936;2024-02-15T13:31:02;98972.91;;;11.67;60.12
40117;BME280;25829;50.228;18.936;2024-02-15T13:34:03;98967.78;;;11.66;60.39
40117;BME280;25829;50.228;18.936;2024-02-15T13:37:04;98962.91;;;11.63;60.50
40117;BME280;25829;50.228;18.936;2024-02-15T13:40:05;98966.56;;;11.62;60.54
40117;BME280;25829;50.228;18.936;2024-02-15T13:43:15;98965.53;;;11.56;60.54
40117;BME280;25829;50.228;18.936;2024-02-15T13:46:24;98969.84;;;11.57;60.95
40117;BME280;25829;50.228;18.936;2024-02-15T13:49:25;98969.84;;;11.57;61.05
40117;BME280;25829;50.228;18.936;2024-02-15T13:52:26;98969.44;;;11.60;60.67
40117;BME280;25829;50.228;18.936;2024-02-15T13:55:27;98971.84;;;11.62;60.83
40117;BME280;25829;50.228;18.936;2024-02-15T13:58:37;98959.47;;;11.62;60.95
40117;BME280;25829;50.228;18.936;2024-02-15T14:01:38;98961.09;;;11.57;61.02
40117;BME280;25829;50.228;18.936;2024-02-15T14:04:45;98965.53;;;11.56;61.36
40117;BME280;25829;50.228;18.936;2024-02-15T14:07:47;98971.25;;;11.53;61.18
40117;BME280;25829;50.228;18.936;2024-02-15T14:10:49;98964.13;;;11.47;60.98
40117;BME280;25829;50.228;18.936;2024-02-15T14:13:50;98976.31;;;11.48;61.28
40117;BME280;25829;50.228;18.936;2024-02-15T14:16:56;98966.56;;;11.48;61.46
40117;BME280;25829;50.228;18.936;2024-02-15T14:20:06;98970.00;;;11.49;61.41
40117;BME280;25829;50.228;18.936;2024-02-15T14:23:13;98966.78;;;11.47;61.54
40117;BME280;25829;50.228;18.936;2024-02-15T14:26:18;98974.06;;;11.45;61.12
40117;BME280;25829;50.228;18.936;2024-02-15T14:29:18;98974.84;;;11.39;61.31
40117;BME280;25829;50.228;18.936;2024-02-15T14:32:23;98970.19;;;11.34;61.53
40117;BME280;25829;50.228;18.936;2024-02-15T14:35:42;98976.88;;;11.30;61.62
40117;BME280;25829;50.228;18.936;2024-02-15T14:38:43;98974.03;;;11.32;61.73
40117;BME280;25829;50.228;18.936;2024-02-15T14:41:45;98968.97;;;11.30;61.60
40117;BME280;25829;50.228;18.936;2024-02-15T14:44:45;98979.50;;;11.23;61.58
40117;BME280;25829;50.228;18.936;2024-02-15T14:47:46;98966.28;;;11.17;61.80
40117;BME280;25829;50.228;18.936;2024-02-15T14:50:47;98979.06;;;11.13;62.00
40117;BME280;25829;50.228;18.936;2024-02-15T14:53:50;98975.00;;;11.11;61.93
40117;BME280;25829;50.228;18.936;2024-02-15T14:56:51;98973.59;;;11.08;62.04
40117;BME280;25829;50.228;18.936;2024-02-15T14:59:57;98978.22;;;11.06;62.41
40117;BME280;25829;50.228;18.936;2024-02-15T15:02:58;98973.59;;;11.08;62.14
40117;BME280;25829;50.228;18.936;2024-02-15T15:05:59;98966.88;;;11.12;62.35
40117;BME280;25829;50.228;18.936;2024-02-15T15:09:18;98961.19;;;11.09;62.30
40117;BME280;25829;50.228;18.936;2024-02-15T15:12:38;98966.66;;;11.07;62.38
40117;BME280;25829;50.228;18.936;2024-02-15T15:15:40;98977.22;;;11.07;62.38
40117;BME280;25829;50.228;18.936;2024-02-15T15:18:41;98968.69;;;11.05;62.32
40117;BME280;25829;50.228;18.936;2024-02-15T15:21:41;98974.53;;;11.00;62.31
40117;BME280;25829;50.228;18.936;2024-02-15T15:24:43;98969.25;;;10.94;62.10
40117;BME280;25829;50.228;18.936;2024-02-15T15:27:47;98976.13;;;10.88;62.60
40117;BME280;25829;50.228;18.936;2024-02-15T15:30:51;98980.75;;;10.79;62.68
40117;BME280;25829;50.228;18.936;2024-02-15T15:41:22;98991.75;;;10.55;63.13
40117;BME280;25829;50.228;18.936;2024-02-15T15:44:22;98995.16;;;10.49;63.40
40117;BME280;25829;50.228;18.936;2024-02-15T15:51:42;98997.69;;;10.29;63.77
40117;BME280;25829;50.228;18.936;2024-02-15T15:54:53;99006.38;;;10.23;63.88
40117;BME280;25829;50.228;18.936;2024-02-15T15:57:54;99007.34;;;10.15;63.90
40117;BME280;25829;50.228;18.936;2024-02-15T16:00:55;99009.91;;;10.08;64.08
40117;BME280;25829;50.228;18.936;2024-02-15T16:03:56;99014.31;;;10.01;63.98
40117;BME280;25829;50.228;18.936;2024-02-15T16:06:57;99012.44;;;9.95;64.40
40117;BME280;25829;50.228;18.936;2024-02-15T16:09:58;99017.22;;;9.85;64.55
40117;BME280;25829;50.228;18.936;2024-02-15T16:13:00;99012.88;;;9.77;65.03
40117;BME280;25829;50.228;18.936;2024-02-15T16:16:01;99021.97;;;9.75;64.97
40117;BME280;25829;50.228;18.936;2024-02-15T16:25:33;99032.22;;;9.63;65.35
40117;BME280;25829;50.228;18.936;2024-02-15T16:28:34;99027.47;;;9.58;65.33
40117;BME280;25829;50.228;18.936;2024-02-15T16:31:35;99039.41;;;9.54;65.60
40117;BME280;25829;50.228;18.936;2024-02-15T16:34:35;99029.44;;;9.50;65.73
40117;BME280;25829;50.228;18.936;2024-02-15T16:37:40;99031.06;;;9.51;65.69
40117;BME280;25829;50.228;18.936;2024-02-15T16:40:44;99038.97;;;9.51;65.79